Latest Weather Observations for Launceston Airport

IDT60801

Issued at 5:05 am EST Thursday 31 July 2014 (issued every 30 minutes, with the page automatically refreshed every 10 minutes)

About weather observations | Map of weather stations | Latest weather observations for TAS | Other Formats
Station Details ID: 091311 Name: LAUNCESTON AIRPORT Lat: -41.55 Lon: 147.21 Height: 166.9 m
Data from the previous 72 hours. | See also: Recent months at Launceston Airport
Date/Time
EST
Temp
°C
App
Temp
°C
Dew
Point
Rel
Hum
%
Delta-T
°C
Wind Press
QNH
hPa
Press
MSL
hPa
Rain
since 9 am
mm
Dir
 
Spd
km/h
Gust
km/h
Spd
kts
Gust
kts
31/05:00am 11.7 1.8 9.6 87 1.1 NNW 52 70 28 38 991.7 992.0 17.0
31/04:55am 11.9 2.0 9.8 87 1.1 NNW 52 70 28 38 991.7 - 17.0
31/04:49am 11.6 2.1 9.7 88 1.0 NNW 50 69 27 37 991.8 - 16.8
31/04:47am 11.6 0.8 9.9 89 0.9 NW 57 69 31 37 991.7 - 16.8
31/04:42am 11.1 4.9 10.0 93 0.6 NW 33 52 18 28 992.0 - 16.8
31/04:34am 10.9 3.8 9.7 92 0.6 NW 37 48 20 26 992.2 - 15.8
31/04:30am 10.8 3.7 9.6 92 0.6 NW 37 50 20 27 992.3 - 13.8
31/04:21am 11.1 2.8 9.4 89 0.9 NW 43 52 23 28 992.3 - 12.2
31/04:00am 11.2 2.3 9.1 87 1.1 NNW 46 67 25 36 992.4 992.8 11.8
31/03:59am 11.2 2.3 9.1 87 1.1 NNW 46 67 25 36 992.4 - 11.8
31/03:52am 11.1 2.6 9.2 88 1.0 NNW 44 59 24 32 992.6 - 11.2
31/03:49am 11.1 2.8 9.4 89 0.9 NNW 43 59 23 32 992.5 - 11.0
31/03:46am 11.0 3.5 9.6 91 0.7 NNW 39 59 21 32 992.5 - 11.0
31/03:30am 10.4 2.6 9.6 95 0.4 NNW 41 52 22 28 992.8 - 10.4
31/03:20am 10.5 2.7 9.6 94 0.5 NNW 41 52 22 28 993.0 - 10.2
31/03:06am 10.8 3.4 9.9 94 0.5 NNW 39 50 21 27 993.1 - 10.2
31/03:02am 11.0 4.0 10.1 94 0.5 NNW 37 48 20 26 993.3 - 10.2
31/03:00am 11.0 4.0 10.1 94 0.5 NNW 37 48 20 26 993.4 993.7 10.2
31/02:42am 11.3 3.0 9.9 91 0.7 NNW 44 65 24 35 993.7 - 10.0
31/02:36am 11.4 3.2 9.8 90 0.8 NNW 43 65 23 35 993.6 - 9.8
31/02:31am 11.4 3.2 9.8 90 0.8 NNW 43 57 23 31 993.7 - 9.8
31/02:30am 11.5 3.4 9.9 90 0.8 NNW 43 57 23 31 993.7 - 9.8
31/02:23am 11.4 3.2 9.8 90 0.8 NNW 43 54 23 29 993.6 - 9.8
31/02:02am 11.2 1.8 10.3 94 0.5 NNW 50 69 27 37 993.8 - 9.2
31/02:00am 11.2 1.5 10.3 94 0.5 NNW 52 69 28 37 993.7 994.0 9.2
31/01:37am 11.0 1.6 10.1 94 0.5 NNW 50 69 27 37 993.8 - 8.6
31/01:30am 10.9 0.3 10.0 94 0.5 NNW 56 70 30 38 993.8 - 8.6
31/01:00am 11.0 0.8 9.9 93 0.6 NNW 54 72 29 39 994.4 994.7 5.6
31/12:30am 11.3 1.9 10.0 92 0.7 NNW 50 69 27 37 995.1 - 4.8
31/12:20am 11.3 4.8 10.2 93 0.6 NNW 35 67 19 36 995.2 - 4.6
31/12:17am 11.2 5.0 10.1 93 0.6 NNW 33 48 18 26 995.2 - 4.4
31/12:00am 11.2 4.2 9.9 92 0.7 NNW 37 48 20 26 995.8 996.1 3.0
 
Date/Time
EST
Temp
°C
App
Temp
°C
Dew
Point
Rel
Hum
%
Delta-T
°C
Wind Press
QNH
hPa
Press
MSL
hPa
Rain
since 9 am
mm
Dir
 
Spd
km/h
Gust
km/h
Spd
kts
Gust
kts
30/11:59pm 11.2 4.6 9.9 92 0.7 NNW 35 48 19 26 995.8 - 3.0
30/11:45pm 11.4 3.1 9.3 87 1.1 NNW 43 61 23 33 996.0 - 2.8
30/11:30pm 11.3 3.5 9.6 89 0.9 NNW 41 52 22 28 996.2 - 2.6
30/11:15pm 11.3 3.4 9.2 87 1.1 NNW 41 59 22 32 996.6 - 2.4
30/11:00pm 11.2 3.2 9.1 87 1.1 NNW 41 52 22 28 996.6 996.9 2.2
30/10:35pm 11.1 1.7 8.8 86 1.1 NNW 48 63 26 34 997.0 - 2.2
30/10:30pm 11.0 2.1 9.3 89 0.9 NNW 46 63 25 34 997.0 - 2.2
30/10:16pm 11.0 2.5 9.3 89 0.9 NNW 44 61 24 33 997.0 - 2.2
30/10:00pm 11.2 2.9 9.5 89 0.9 NNW 43 56 23 30 997.1 997.5 2.0
30/09:44pm 11.2 2.8 8.9 86 1.2 NNW 43 63 23 34 997.1 - 2.0
30/09:30pm 11.2 2.1 8.4 83 1.4 NNW 46 59 25 32 997.0 - 2.0
30/09:00pm 11.5 2.3 8.2 80 1.6 NNW 46 65 25 35 997.4 997.8 2.0
30/08:36pm 11.4 1.9 8.3 81 1.5 NNW 48 70 26 38 997.9 - 2.0
30/08:30pm 11.5 1.7 8.7 83 1.4 NNW 50 74 27 40 997.8 - 2.0
30/08:20pm 11.4 2.6 9.5 88 1.0 NNW 46 72 25 39 997.9 - 2.0
30/08:00pm 11.1 3.0 9.9 92 0.6 NNW 43 52 23 28 997.8 998.2 1.0
30/07:47pm 11.2 3.0 9.6 90 0.8 NNW 43 57 23 31 997.9 - 0.6
30/07:33pm 11.5 3.2 9.2 86 1.2 NNW 43 61 23 33 997.9 - 0.6
30/07:30pm 11.5 2.6 9.2 86 1.2 NNW 46 61 25 33 998.0 - 0.6
30/07:14pm 11.4 3.0 9.1 86 1.2 NNW 43 61 23 33 998.2 - 0.6
30/07:00pm 11.4 3.3 8.8 84 1.3 NNW 41 56 22 30 998.3 998.7 0.6
30/06:30pm 11.5 3.3 8.4 81 1.5 NW 41 52 22 28 998.8 - 0.4
30/06:00pm 11.5 4.7 9.1 85 1.2 NNW 35 48 19 26 998.5 998.9 0.4
30/05:30pm 11.3 3.7 8.9 85 1.2 NW 39 67 21 36 998.4 - 0.4
30/05:04pm 11.9 3.9 9.1 83 1.4 NNW 41 59 22 32 998.1 - 0.4
30/05:00pm 11.8 3.5 9.2 84 1.3 NNW 43 57 23 31 998.0 998.4 0.4
30/04:47pm 12.0 3.7 9.4 84 1.3 N 43 61 23 33 997.7 - 0.4
30/04:30pm 11.7 4.9 9.3 85 1.2 NNW 35 46 19 25 997.8 - 0.4
30/04:00pm 11.9 4.0 9.5 85 1.2 NNW 41 56 22 30 997.8 998.2 0.4
30/03:30pm 11.4 3.2 9.8 90 0.8 NNW 43 56 23 30 998.1 - 0.4
30/03:00pm 11.2 4.5 9.5 89 0.9 NNW 35 46 19 25 998.2 998.6 0.4
30/02:50pm 11.7 4.7 9.9 89 0.9 NNW 37 46 20 25 998.2 - 0.4
30/02:40pm 11.3 4.2 9.7 90 0.8 NNW 37 48 20 26 998.3 - 0.4
30/02:30pm 11.3 4.3 9.9 91 0.7 NNW 37 50 20 27 998.4 - 0.4
30/02:27pm 11.4 4.4 10.0 91 0.7 NNW 37 46 20 25 998.5 - 0.4
30/02:18pm 11.5 3.6 9.4 87 1.1 NNW 41 56 22 30 998.7 - 0.4
30/02:01pm 11.2 3.2 9.1 87 1.1 NNW 41 59 22 32 999.0 - 0.4
30/02:00pm 11.2 2.8 9.1 87 1.1 NNW 43 59 23 32 999.0 999.4 0.4
30/01:57pm 11.4 3.0 9.0 85 1.2 NNW 43 59 23 32 999.0 - 0.2
30/01:30pm 12.7 4.2 8.6 76 2.1 NNW 43 56 23 30 998.8 - 0.0
30/01:00pm 12.4 3.9 8.5 77 2.0 NNW 43 72 23 39 999.2 999.6 0.0
30/12:31pm 12.3 3.7 8.0 75 2.1 NW 43 61 23 33 1000.0 - 0.0
30/12:30pm 12.2 3.3 7.7 74 2.2 NW 44 61 24 33 999.9 - 0.0
30/12:00pm 12.7 3.3 7.0 68 2.8 NW 46 65 25 35 1000.4 1000.7 0.0
30/11:37am 12.5 3.6 7.8 73 2.3 NW 44 63 24 34 1000.7 - 0.0
30/11:30am 12.4 3.1 7.5 72 2.4 NNW 46 63 25 34 1000.6 - 0.0
30/11:00am 12.6 4.2 7.5 71 2.5 NNW 41 56 22 30 1001.1 1001.4 0.0
30/10:32am 11.8 3.8 7.5 75 2.1 NNW 39 57 21 31 1001.5 - 0.0
30/10:30am 11.8 3.8 7.3 74 2.2 NNW 39 52 21 28 1001.5 - 0.0
30/10:04am 11.9 4.5 6.8 71 2.5 NW 35 54 19 29 1001.5 - 0.0
30/10:00am 11.9 3.7 6.4 69 2.6 NW 39 54 21 29 1001.5 1001.8 0.0
30/09:33am 11.2 4.2 6.9 75 2.1 NNW 33 54 18 29 1001.6 - 0.0
30/09:30am 11.0 4.2 6.9 76 2.0 NNW 32 43 17 23 1001.5 - 0.0
30/09:00am 10.3 3.8 6.5 77 1.8 NNW 30 39 16 21 1001.4 1001.7 6.2
30/08:30am 9.5 3.2 5.9 78 1.7 N 28 43 15 23 1001.7 - 6.2
30/08:00am 9.0 2.7 5.6 79 1.6 N 28 37 15 20 1001.5 1001.8 6.2
30/07:30am 8.7 1.9 5.1 78 1.6 N 30 39 16 21 1001.7 - 6.2
30/07:00am 8.1 1.5 4.1 76 1.8 N 28 39 15 21 1001.8 1002.2 6.2
30/06:30am 8.3 1.2 3.4 71 2.1 N 30 39 16 21 1001.6 - 6.2
30/06:00am 7.8 1.0 2.9 71 2.1 N 28 37 15 20 1001.3 1001.6 6.2
30/05:30am 7.9 3.1 2.8 70 2.2 N 17 30 9 16 1001.1 - 6.2
30/05:00am 7.0 2.6 2.5 73 1.9 N 15 20 8 11 1000.6 1000.9 6.2
30/04:30am 8.2 2.0 2.2 66 2.5 NNW 24 33 13 18 1000.4 - 6.2
30/04:12am 9.7 2.1 2.6 61 3.1 NW 32 52 17 28 999.9 - 6.2
30/04:00am 9.2 1.4 2.8 64 2.8 NW 33 50 18 27 999.8 1000.1 6.2
30/03:39am 10.0 3.1 2.4 59 3.3 NW 28 48 15 26 999.6 - 6.2
30/03:30am 9.7 2.0 2.3 60 3.2 NW 32 43 17 23 999.5 - 6.2
30/03:15am 10.0 3.1 2.6 60 3.2 NW 28 50 15 27 998.9 - 6.2
30/03:00am 10.1 2.3 2.7 60 3.2 NW 33 46 18 25 998.8 999.2 6.2
30/02:30am 10.3 1.2 1.9 56 3.6 NW 39 54 21 29 998.3 - 6.2
30/02:00am 10.5 1.9 2.8 59 3.4 NW 37 56 20 30 997.6 998.0 6.2
30/01:36am 10.0 2.1 4.2 67 2.6 NW 35 54 19 29 997.5 - 6.2
30/01:30am 9.5 1.6 4.3 70 2.3 NW 35 46 19 25 997.4 - 6.2
30/01:00am 9.6 0.3 4.8 72 2.2 NW 43 56 23 30 997.1 997.5 6.2
30/12:30am 9.7 -1.0 4.7 71 2.3 NW 50 67 27 36 996.2 - 6.2
30/12:00am 9.7 0.7 4.7 71 2.3 NW 41 61 22 33 995.6 995.9 6.2
 
Date/Time
EST
Temp
°C
App
Temp
°C
Dew
Point
Rel
Hum
%
Delta-T
°C
Wind Press
QNH
hPa
Press
MSL
hPa
Rain
since 9 am
mm
Dir
 
Spd
km/h
Gust
km/h
Spd
kts
Gust
kts
29/11:30pm 9.4 0.8 4.6 72 2.2 NW 39 57 21 31 995.6 - 6.2
29/11:00pm 10.0 1.2 3.7 65 2.8 NNW 39 59 21 32 995.3 995.6 6.2
29/10:31pm 10.6 2.0 4.5 66 2.8 NW 39 67 21 36 995.3 - 6.2
29/10:30pm 9.9 1.7 4.5 69 2.4 NW 37 50 20 27 995.3 - 6.2
29/10:00pm 10.9 0.5 4.1 63 3.1 NW 48 67 26 36 994.8 995.1 6.2
29/09:41pm 10.7 0.8 5.0 68 2.6 NW 46 72 25 39 994.6 - 6.2
29/09:30pm 10.5 0.8 5.7 72 2.2 NW 46 61 25 33 994.7 - 6.2
29/09:08pm 10.6 1.2 5.2 69 2.5 NW 44 65 24 35 994.3 - 6.2
29/09:00pm 10.2 0.9 5.2 71 2.3 NW 43 57 23 31 994.1 994.4 6.2
29/08:48pm 10.3 1.2 5.7 73 2.1 NW 43 61 23 33 994.4 - 6.2
29/08:30pm 10.6 1.4 5.4 70 2.4 NW 43 59 23 32 993.7 - 6.0
29/08:00pm 10.0 1.6 5.8 75 2.0 WNW 39 54 21 29 994.1 994.4 6.0
29/07:46pm 10.2 1.0 6.2 76 1.9 WNW 44 65 24 35 994.1 - 6.0
29/07:30pm 10.3 2.6 7.2 81 1.5 WNW 37 57 20 31 993.8 - 5.8
29/07:28pm 10.5 3.2 7.0 79 1.7 WNW 35 57 19 31 994.2 - 5.8
29/07:13pm 11.3 4.6 8.3 82 1.5 NW 33 48 18 26 992.9 - 5.0
29/07:00pm 11.3 4.0 8.7 84 1.3 WNW 37 50 20 27 992.7 993.1 4.8
29/06:48pm 11.7 2.9 8.2 79 1.7 WNW 44 65 24 35 992.1 - 4.6
29/06:30pm 12.5 1.8 8.0 74 2.2 NW 54 72 29 39 991.3 - 3.8
29/06:00pm 12.7 2.8 8.4 75 2.2 NW 50 72 27 39 990.7 991.0 3.8
29/05:50pm 12.5 3.4 8.4 76 2.1 NW 46 65 25 35 990.9 - 3.8
29/05:30pm 11.8 2.7 8.6 81 1.6 NNW 46 59 25 32 990.7 - 3.8
29/05:00pm 11.9 1.7 8.4 79 1.8 NW 52 72 28 39 990.9 991.2 3.8
29/04:35pm 12.1 1.2 9.7 85 1.2 NNW 57 76 31 41 990.7 - 3.8
29/04:30pm 11.9 1.0 9.6 86 1.2 NNW 57 76 31 41 990.7 - 3.8
29/04:16pm 11.8 1.9 9.7 87 1.1 NNW 52 85 28 46 990.6 - 3.8
29/04:10pm 11.7 2.9 9.4 86 1.2 NNW 46 65 25 35 990.8 - 3.6
29/04:00pm 12.1 3.1 8.9 81 1.6 NNW 46 65 25 35 991.0 991.3 3.6
29/03:43pm 12.2 2.7 8.3 77 1.9 NNW 48 67 26 36 991.6 - 3.6
29/03:30pm 12.0 1.6 7.9 76 2.0 NNW 52 63 28 34 991.6 - 3.6
29/03:00pm 11.9 1.8 7.6 75 2.1 NNW 50 69 27 37 992.2 992.6 3.6
29/02:31pm 12.4 2.8 7.9 74 2.2 NNW 48 67 26 36 992.4 - 3.6
29/02:30pm 12.2 2.1 7.3 72 2.4 NNW 50 67 27 36 992.3 - 3.6
29/02:00pm 11.8 2.3 6.9 72 2.4 NNW 46 70 25 38 993.1 993.5 3.6
29/01:30pm 11.2 2.5 7.5 78 1.8 NNW 43 65 23 35 993.4 - 3.6
29/01:08pm 10.4 2.0 7.5 82 1.4 NW 41 59 22 32 993.9 - 3.6
29/01:00pm 10.4 1.7 7.5 82 1.4 NW 43 59 23 32 994.0 994.3 3.4
29/12:36pm 10.4 2.4 7.3 81 1.5 WNW 39 57 21 31 994.1 - 3.2
29/12:30pm 10.3 1.9 7.5 83 1.4 WNW 41 61 22 33 994.4 - 3.2
29/12:19pm 10.7 4.3 8.5 86 1.1 WNW 32 57 17 31 994.5 - 3.0
29/12:14pm 10.8 5.7 9.2 90 0.8 W 26 35 14 19 994.4 - 2.0
29/12:00pm 11.2 4.7 8.8 85 1.2 NNW 33 48 18 26 994.0 994.3 1.6
29/11:54am 12.0 5.2 9.4 84 1.3 NNW 35 54 19 29 994.1 - 1.6
29/11:30am 11.9 4.4 9.6 86 1.2 NNW 39 50 21 27 994.3 - 1.6
29/11:09am 11.5 3.6 9.4 87 1.1 NW 41 54 22 29 994.6 - 1.6
29/11:00am 11.4 3.1 9.3 87 1.1 NW 43 56 23 30 994.5 994.8 1.6
29/10:47am 11.3 2.9 9.0 86 1.2 NW 43 61 23 33 995.2 - 1.0
29/10:45am 11.4 2.8 9.0 85 1.2 NW 44 61 24 33 995.1 - 0.6
29/10:32am 12.0 4.4 9.2 83 1.4 NNW 39 59 21 32 994.9 - 0.4
29/10:30am 11.8 4.3 9.5 86 1.2 NNW 39 54 21 29 994.9 - 0.4
29/10:00am 11.0 4.2 9.1 88 1.0 N 35 48 19 26 995.0 995.3 0.4
29/09:34am 11.5 3.1 8.9 84 1.3 NW 43 61 23 33 995.3 - 0.4
29/09:30am 11.6 3.0 8.8 83 1.4 NW 44 61 24 33 995.2 - 0.4
29/09:14am 11.7 3.4 9.3 85 1.2 NW 43 61 23 33 995.2 - 0.2
29/09:02am 11.4 3.3 10.1 92 0.7 NNW 43 61 23 33 995.3 - 0.0
29/09:00am 11.3 3.0 10.2 93 0.6 NNW 44 61 24 33 995.4 995.7 22.0
29/08:57am 11.3 2.7 10.2 93 0.6 NNW 46 61 25 33 995.3 - 21.8
29/08:53am 11.3 3.0 10.2 93 0.6 NNW 44 61 24 33 995.3 - 21.4
29/08:39am 11.4 1.2 10.1 92 0.7 NNW 54 69 29 37 995.2 - 21.4
29/08:30am 11.4 1.2 10.0 91 0.7 NNW 54 69 29 37 995.2 - 21.4
29/08:12am 11.0 2.3 10.1 94 0.5 NNW 46 72 25 39 995.4 - 20.6
29/08:06am 10.9 2.6 10.1 95 0.4 NNW 44 59 24 32 995.5 - 20.0
29/08:00am 10.9 2.6 10.1 95 0.4 NNW 44 59 24 32 995.6 995.9 19.4
29/07:52am 10.8 3.0 9.9 94 0.5 NNW 41 57 22 31 995.8 - 18.2
29/07:49am 10.8 3.4 9.9 94 0.5 NNW 39 57 21 31 996.0 - 18.0
29/07:30am 10.7 2.0 9.9 95 0.4 NNW 46 63 25 34 996.5 - 15.2
29/07:24am 10.7 2.4 9.9 95 0.4 NNW 44 63 24 34 996.4 - 14.6
29/07:07am 10.7 2.5 9.8 94 0.5 NNW 43 57 23 31 996.8 - 14.2
29/07:06am 10.7 2.5 9.8 94 0.5 NNW 43 57 23 31 996.8 - 14.0
29/07:01am 10.8 3.4 9.7 93 0.6 NNW 39 57 21 31 997.0 - 14.0
29/07:00am 10.8 3.4 9.7 93 0.6 NNW 39 54 21 29 997.0 997.4 14.0
29/06:31am 10.7 2.5 9.8 94 0.5 NNW 43 61 23 33 997.3 - 11.8
29/06:30am 10.7 2.3 9.8 94 0.5 NNW 44 61 24 33 997.3 - 11.8
29/06:06am 10.7 1.6 9.8 94 0.5 NNW 48 70 26 38 997.2 - 9.6
29/06:01am 10.6 2.4 9.7 94 0.5 NNW 43 61 23 33 997.2 - 9.4
29/06:00am 10.6 2.4 9.7 94 0.5 NNW 43 56 23 30 997.2 997.6 9.4
29/05:56am 10.6 3.1 9.5 93 0.6 NNW 39 56 21 30 997.4 - 9.4
29/05:41am 10.2 3.0 9.0 92 0.6 NNW 37 56 20 30 997.7 - 8.8
29/05:33am 10.3 1.9 9.1 92 0.6 NNW 43 59 23 32 998.1 - 8.8
29/05:30am 10.4 1.8 9.0 91 0.7 NNW 44 59 24 32 998.1 - 8.8
29/05:25am 10.3 1.8 9.1 92 0.6 N 44 63 24 34 998.1 - 8.8
29/05:06am 10.6 1.8 9.5 93 0.6 NNW 46 65 25 35 998.6 - 7.8
29/05:00am 10.6 1.4 9.4 92 0.6 NNW 48 65 26 35 998.6 999.0 7.6
29/04:51am 10.6 3.1 9.5 93 0.6 NNW 39 63 21 34 998.7 - 7.0
29/04:40am 10.6 2.3 9.4 92 0.6 NNW 43 56 23 30 998.8 - 6.2
29/04:30am 10.6 3.1 9.4 92 0.6 NNW 39 52 21 28 999.0 - 5.8
29/04:20am 10.4 2.5 9.2 92 0.6 NNW 41 54 22 29 999.2 - 5.8
29/04:03am 10.1 2.5 9.0 93 0.5 NNW 39 52 21 28 999.6 - 5.6
29/04:00am 10.1 2.1 8.9 92 0.6 NNW 41 57 22 31 999.6 999.9 5.6
29/03:46am 10.2 1.8 9.0 92 0.6 NNW 43 57 23 31 999.7 - 5.6
29/03:30am 10.0 2.7 8.9 93 0.5 NNW 37 48 20 26 1000.2 - 5.4
29/03:29am 10.0 2.7 8.9 93 0.5 NNW 37 48 20 26 1000.2 - 5.4
29/03:00am 9.9 3.0 8.7 92 0.6 N 35 46 19 25 1000.8 1001.1 5.4
29/02:58am 9.8 2.8 8.6 92 0.6 N 35 48 19 26 1000.9 - 5.4
29/02:38am 9.6 3.1 8.8 95 0.4 N 33 44 18 24 1001.4 - 5.0
29/02:30am 9.5 3.5 8.7 95 0.4 N 30 35 16 19 1001.6 - 4.8
29/02:00am 9.4 2.7 8.0 91 0.7 N 33 43 18 23 1002.3 1002.7 4.8
29/01:40am 9.3 2.7 7.7 90 0.8 N 32 41 17 22 1002.4 - 4.8
29/01:30am 9.2 2.6 7.8 91 0.7 N 32 41 17 22 1002.3 - 4.8
29/01:00am 9.0 3.2 8.1 94 0.4 N 28 39 15 21 1002.6 1003.0 4.8
29/12:45am 8.9 3.1 8.0 94 0.4 N 28 35 15 19 1002.8 - 4.8
29/12:31am 9.1 4.2 8.5 96 0.3 N 24 35 13 19 1003.0 - 4.8
29/12:30am 9.0 4.1 8.4 96 0.3 N 24 35 13 19 1003.0 - 4.8
29/12:23am 8.9 4.0 8.3 96 0.3 N 24 35 13 19 1003.0 - 4.8
29/12:00am 9.4 4.2 8.8 96 0.3 N 26 33 14 18 1003.2 1003.6 4.8
 
Date/Time
EST
Temp
°C
App
Temp
°C
Dew
Point
Rel
Hum
%
Delta-T
°C
Wind Press
QNH
hPa
Press
MSL
hPa
Rain
since 9 am
mm
Dir
 
Spd
km/h
Gust
km/h
Spd
kts
Gust
kts
28/11:30pm 9.7 4.6 9.1 96 0.3 NNW 26 37 14 20 1004.1 - 4.2
28/11:00pm 9.7 4.9 8.9 95 0.4 N 24 37 13 20 1004.5 1004.9 4.0
28/10:30pm 9.7 4.1 8.8 94 0.4 N 28 35 15 19 1004.7 - 4.0
28/10:00pm 9.6 4.3 8.4 92 0.6 N 26 33 14 18 1005.0 1005.4 4.0
28/09:30pm 9.4 4.0 7.8 90 0.8 N 26 32 14 17 1005.4 - 4.0
28/09:00pm 8.8 2.9 7.4 91 0.7 N 28 39 15 21 1005.4 1005.8 4.0
28/08:30pm 8.8 4.5 7.7 93 0.5 N 20 28 11 15 1005.7 - 3.8
28/08:00pm 8.7 3.5 7.2 90 0.7 N 24 33 13 18 1005.9 1006.2 3.8
28/07:30pm 9.4 3.8 7.3 87 1.0 NW 26 37 14 20 1006.1 - 3.6
28/07:01pm 9.7 3.4 7.5 86 1.1 WNW 30 43 16 23 1005.9 - 2.2
28/07:00pm 9.6 3.3 7.4 86 1.1 NW 30 39 16 21 1005.9 1006.2 2.2
28/06:51pm 9.8 3.0 7.7 87 1.0 NW 33 52 18 28 1005.5 - 1.8
28/06:41pm 10.3 1.8 8.6 89 0.8 NNW 43 57 23 31 1006.0 - 1.2
28/06:32pm 10.8 2.6 9.7 93 0.6 NNW 43 56 23 30 1005.7 - 0.4
28/06:30pm 11.0 2.8 9.8 92 0.6 NNW 43 56 23 30 1005.5 - 0.2
28/06:25pm 11.1 2.9 9.7 91 0.7 NNW 43 54 23 29 1005.4 - 0.2
28/06:22pm 11.1 3.2 9.5 90 0.8 N 41 54 22 29 1005.2 - 0.2
28/06:00pm 10.9 4.2 9.5 91 0.7 N 35 46 19 25 1004.9 1005.3 0.2
28/05:30pm 10.9 4.7 9.5 91 0.7 N 32 43 17 23 1005.1 - 0.2
28/05:27pm 11.0 4.7 9.6 91 0.7 N 33 43 18 23 1005.1 - 0.2
28/05:00pm 10.7 4.2 9.0 89 0.9 N 33 44 18 24 1005.1 1005.5 0.2
28/04:30pm 10.9 3.8 8.0 82 1.4 N 35 46 19 25 1005.2 - 0.2
28/04:00pm 11.6 5.0 7.9 78 1.8 N 32 43 17 23 1005.3 1005.7 0.2
28/03:30pm 11.7 5.7 8.6 81 1.5 N 30 43 16 23 1005.5 - 0.2
28/03:00pm 12.0 5.3 8.1 77 1.9 N 33 44 18 24 1006.0 1006.3 0.0
28/02:30pm 11.9 4.6 8.6 80 1.7 N 37 54 20 29 1006.2 - 0.0
28/02:00pm 12.0 5.4 7.7 75 2.1 N 32 43 17 23 1006.3 1006.6 0.0
28/01:50pm 12.8 6.3 9.1 78 1.9 N 33 44 18 24 1006.2 - 0.0
28/01:30pm 12.7 8.2 10.1 84 1.3 N 24 32 13 17 1006.3 - 0.0
28/01:10pm 11.8 5.8 10.0 89 0.9 NNW 32 44 17 24 1006.5 - 0.0
28/01:08pm 11.8 5.8 10.0 89 0.9 NNW 32 44 17 24 1006.5 - 0.0
28/01:00pm 11.9 5.9 10.1 89 0.9 NNW 32 43 17 23 1006.6 1007.0 0.0
28/12:58pm 11.9 5.9 10.1 89 0.9 NNW 32 43 17 23 1006.7 - 0.0
28/12:30pm 12.1 5.4 9.8 86 1.2 NNW 35 50 19 27 1007.2 - 0.0
28/12:00pm 12.4 6.1 9.6 83 1.4 NNW 33 43 18 23 1007.8 1008.2 0.0
28/11:36am 11.7 4.9 9.1 84 1.3 N 35 46 19 25 1008.2 - 0.0
28/11:30am 12.9 6.3 9.9 82 1.6 N 35 44 19 24 1008.4 - 0.0
28/11:09am 11.7 5.9 9.4 86 1.2 N 30 43 16 23 1008.6 - 0.0
28/11:00am 11.9 7.3 9.6 86 1.2 N 24 39 13 21 1008.8 1009.2 0.0
28/10:30am 10.6 5.6 8.2 85 1.2 N 24 32 13 17 1009.3 - 0.0
28/10:00am 10.3 4.5 8.1 86 1.1 N 28 35 15 19 1009.3 1009.7 0.0
28/09:30am 10.7 5.5 8.8 88 0.9 N 26 33 14 18 1009.2 - 0.0
28/09:00am 9.9 5.1 8.7 92 0.6 NNW 24 30 13 16 1009.4 1009.8 2.2
28/08:30am 9.8 5.7 8.7 93 0.5 N 20 26 11 14 1009.3 - 2.2
28/08:00am 10.5 5.8 9.1 91 0.7 NNW 24 30 13 16 1009.2 1009.6 2.2
28/07:30am 10.9 5.6 10.0 94 0.5 NNW 28 39 15 21 1009.4 - 2.0
28/07:00am 11.1 5.8 9.7 91 0.7 NNW 28 33 15 18 1009.5 1009.9 1.8
28/06:30am 11.2 5.4 9.6 90 0.8 N 30 39 16 21 1009.6 - 1.4
28/06:00am 11.2 5.4 9.6 90 0.8 N 30 37 16 20 1009.3 1009.7 1.4
28/05:30am 11.1 5.3 9.5 90 0.8 N 30 37 16 20 1009.5 - 1.4

Other Formats:

Comma delimited format used in spreadsheet applications
http://www.bom.gov.au/fwo/IDT60801/IDT60801.95966.axf

JavaScript Object Notation format (JSON) in row-major order
http://www.bom.gov.au/fwo/IDT60801/IDT60801.95966.json